グアム国際空港の過去48時間の天気

グアム国際空港 (Agana, Guam International Airport)

現在時刻: 2/28 00:09 ChST (2/27 14:09 UTC) 以下の時間は現地時間です。

過去48時間のMETAR気象情報
時間 風向 風速(m/s) 視程 気温(℃) 湿度(%) 気圧(hPa) 天気現象
27 23:54 東北東 3 10km以上 25 79 1013.3
27 22:54 東北東 4 10km以上 25.6 79 1013.3
27 21:54 東北東 3 10km以上 25 82 1013.2
27 20:54 北東 3 10km以上 25 82 1012.5
27 19:54 東北東 3 10km以上 26.1 77 1011.8
27 18:54 東北東 4 10km以上 26.7 74 1011.1
27 17:54 東北東 6 10km以上 27.2 69 1010.7
27 16:54 北東 7 10km以上 28.3 67 1010.4
27 15:54 北東 5 10km以上 30 57 1010.1
27 14:54 東北東 6 10km以上 30 57 1010.3
27 13:54 北東 6 10km以上 30 57 1011
27 12:54 東北東 7 10km以上 28.9 63 1011.6
27 11:54 東北東 6 10km以上 29.4 61 1012.2
27 10:54 7 10km以上 28.3 65 1013.2
27 10:04 東北東 7 10km以上 28.3 65 1015
27 09:54 北東 6 10km以上 28.3 67 1013.6
27 08:54 北東 6 10km以上 27.2 74 1013.2
27 07:54 東北東 4 10km以上 25.6 82 1012.9
27 06:54 北東 4 10km以上 24.4 88 1012.5
27 05:54 東北東 4 10km以上 25.6 79 1011.7
27 04:54 東北東 4 10km以上 25.6 82 1011.1
27 03:54 東北東 3 10km以上 24.4 88 1010.9
27 02:54 北東 4 10km以上 25 82 1011
27 01:54 東北東 5 10km以上 25.6 82 1011.7
27 00:54 東北東 4 10km以上 25.6 82 1012.5
26 23:54 東北東 4 10km以上 25.6 82 1012.9
26 23:33 東北東 4 10km以上 25.6 82 1014
26 23:24 東北東 4 10km以上 25.6 85 1014 弱い雨
26 22:54 北東 3 10km以上 25.6 82 1013.4
26 21:54 東北東 5 10km以上 26.1 77 1013.3
26 20:54 東北東 5 10km以上 26.7 74 1013.1
26 19:54 5 10km以上 26.1 77 1012.5
26 18:54 4 10km以上 26.1 74 1012
26 17:54 7 10km以上 27.2 69 1011.6
26 17:20 6 10km以上 27.8 69 1012
26 17:06 6 10km以上 27.8 69 1012
26 16:54 6 10km以上 27.8 67 1011.1
26 15:54 9 10km以上 28.9 63 1010.8
26 14:54 9 10km以上 28.9 65 1011.1
26 14:25 8 10km以上 29.4 61 1012
26 13:54 10 10km以上 29.4 63 1011.8
26 12:54 7 10km以上 29.4 63 1012.5
26 11:54 9 10km以上 30 59 1013.5
26 11:03 東北東 10 10km以上 28.3 70 1015
26 10:54 東北東 10 10km以上 27.2 77 1014.4 弱い雨
26 10:09 東北東 8 10km以上 28.3 67 1016
26 09:54 10 10km以上 28.3 70 1014.7
26 08:54 北東 8 10km以上 27.2 74 1014.5
26 08:43 東北東 6 10km以上 27.2 74 1015
26 07:54 東北東 6 10km以上 26.1 79 1014.2
26 06:54 東北東 5 10km以上 25.6 79 1013.5
26 05:54 東北東 6 10km以上 25.6 79 1012.7
26 04:54 6 10km以上 25.6 79 1011.9
26 03:54 東北東 5 10km以上 25 84 1011.9
26 02:54 東北東 6 10km以上 25.6 79 1012
26 01:54 東北東 6 10km以上 25.6 82 1012.6
26 00:54 東北東 7 10km以上 25.6 82 1013.4
PGUM 271354Z 06006KT 10SM CLR 25/21 A2995 RMK AO2 SLP133 T02500211 403060244
PGUM 271254Z 07008KT 10SM CLR 26/22 A2995 RMK AO2 SLP133 T02560217
PGUM 271154Z AUTO 06005KT 10SM CLR 25/22 A2994 RMK AO2 SLP132 T02500217 10300 20250 52021
PGUM 271054Z AUTO 05005KT 10SM CLR 25/22 A2992 RMK AO2 SLP125 T02500217
PGUM 270954Z AUTO 06006KT 10SM CLR 26/22 A2990 RMK AO2 SLP118 T02610217
PGUM 270854Z 06007KT 10SM CLR 27/22 A2988 RMK AO2 SLP111 T02670217 52009
PGUM 270754Z 07011KT 10SM FEW035 27/21 A2987 RMK AO2 SLP107 T02720211
PGUM 270654Z 05014KT 10SM FEW024 28/22 A2986 RMK AO2 SLP104 T02830217
PGUM 270554Z 04010KT 10SM FEW030 30/21 A2985 RMK AO2 SLP101 T03000206 10306 20278 56015
PGUM 270454Z 07012G17KT 10SM SCT035 30/21 A2986 RMK AO2 SLP103 T03000206
PGUM 270354Z 05011KT 10SM FEW027 BKN036 30/21 A2988 RMK AO2 SLP110 T03000206
PGUM 270254Z 07013KT 10SM SCT035 29/21 A2990 RMK AO2 SLP116 T02890211 58020
PGUM 270154Z 06012KT 10SM FEW028 BKN040 29/21 A2992 RMK AO2 SLP122 T02940211
PGUM 270054Z 09013KT 10SM FEW022 FEW027 OVC040 28/21 A2994 RMK AO2 SLP132 T02830211
PGUM 270004Z 07013KT 10SM FEW024 SCT029 BKN034 28/21 A2996 RMK AO2 T02830211
PGUM 262354Z 05012KT 10SM BKN027 BKN034 OVC043 28/22 A2996 RMK AO2 SLP136 T02830217 10283 20244 51012
PGUM 262254Z 05012KT 10SM FEW020 SCT036 BKN044 27/22 A2995 RMK AO2 SLP132 T02720222
PGUM 262154Z 07008KT 10SM BKN042 26/22 A2993 RMK AO2 SLP129 T02560222
PGUM 262054Z 05007KT 10SM SCT044 24/22 A2992 RMK AO2 SLP125 T02440222 53014
PGUM 261954Z 06008KT 10SM SCT042 26/22 A2990 RMK AO2 SLP117 T02560217
PGUM 261854Z 06008KT 10SM FEW017 BKN043 26/22 A2988 RMK AO2 SLP111 T02560222
PGUM 261754Z 06005KT 10SM FEW022 BKN041 24/22 A2988 RMK AO2 SLP109 60000 T02440222 10261 20244 56015
PGUM 261654Z 05007KT 10SM CLR 25/22 A2988 RMK AO2 SLP110 T02500217
PGUM 261554Z 07009KT 10SM FEW038 26/22 A2990 RMK AO2 SLP117 T02560222
PGUM 261454Z 06007KT 10SM FEW027 BKN038 26/22 A2992 RMK AO2 SLP125 60000 T02560222 58008
PGUM 261354Z 07008KT 10SM CLR 26/22 A2994 RMK AO2 RAB13E25 SLP129 P0000 T02560222 403000250
PGUM 261333Z 07007KT 10SM FEW019 SCT033 BKN040 26/22 A2994 RMK AO2 RAB13E25 P0000 T02560222
PGUM 261324Z 07007KT 10SM -RA SCT019 BKN029 OVC037 26/23 A2994 RMK AO2 RAB13 P0000 T02560228
PGUM 261254Z 05006KT 10SM FEW018 FEW026 OVC038 26/22 A2995 RMK AO2 SLP134 T02560222
PGUM 261154Z 07009KT 10SM FEW022 BKN034 26/22 A2995 RMK AO2 SLP133 T02610217 10289 20261 51014
PGUM 261054Z 07010KT 10SM BKN032 27/22 A2994 RMK AO2 SLP131 T02670217
PGUM 260954Z 08009KT 10SM FEW021 FEW026 BKN032 26/22 A2992 RMK AO2 SLP125 T02610217
PGUM 260854Z 08008KT 10SM FEW020 FEW031 26/21 A2991 RMK AO2 SLP120 T02610211 51011
PGUM 260754Z 09013KT 10SM FEW021 SCT029 27/21 A2990 RMK AO2 SLP116 T02720211
PGUM 260720Z 08012KT 10SM SCT023 BKN031 28/22 A2989 RMK AO2 T02780217
PGUM 260706Z 10012G19KT 10SM SCT024 BKN029 28/22 A2989 RMK AO2 T02780217
PGUM 260654Z 08012G20KT 10SM FEW025 SCT029 28/21 A2988 RMK AO2 SLP111 T02780211
PGUM 260554Z 09017G21KT 10SM FEW024 29/21 A2987 RMK AO2 SLP108 60000 T02890211 10300 20272 56010
PGUM 260454Z 08017G22KT 10SM SCT025 29/22 A2988 RMK AO2 SLP111 T02890217
PGUM 260425Z 09016G23KT 10SM BKN024 29/21 A2989 RMK AO2 T02940211
PGUM 260354Z 09019G24KT 10SM SCT025 29/22 A2990 RMK AO2 SLP118 T02940217
PGUM 260254Z 09014KT 10SM FEW023 29/22 A2992 RMK AO2 PK WND 08027/0208 SLP125 60000 T02940217 58022
PGUM 260154Z 08018G23KT 10SM FEW023 30/21 A2995 RMK AO2 RAE03 SLP135 P0000 T03000211
PGUM 260103Z 07019G24KT 10SM FEW018 SCT024 BKN050 28/22 A2997 RMK AO2 RAE03 P0000 T02830222
PGUM 260054Z 07019G24KT 6SM -RA SCT019 BKN024 BKN042 27/23 A2998 RMK AO2 PK WND 07026/0026 RAB52 SLP144 P0000 T02720228
PGUM 260009Z 07016KT 10SM SCT023 SCT032 BKN060 28/22 A2999 RMK AO2 T02830217
PGUM 252354Z 08020G26KT 10SM BKN023 BKN032 28/22 A2999 RMK AO2 PK WND 07026/2352 SLP147 T02830222 10283 20250 51013
PGUM 252254Z 05016KT 10SM SCT021 BKN028 BKN033 27/22 A2998 RMK AO2 SLP145 T02720222
PGUM 252243Z 06012KT 10SM SCT021 BKN028 27/22 A2998 RMK AO2 T02720222
PGUM 252154Z 06012KT 10SM FEW019 SCT023 SCT041 26/22 A2997 RMK AO2 SLP142 T02610222
PGUM 252054Z 06010KT 10SM FEW033 26/22 A2995 RMK AO2 SLP135 T02560217 53015
PGUM 251954Z 06012KT 10SM SCT023 SCT033 26/22 A2993 RMK AO2 SLP127 T02560217
PGUM 251854Z 08011KT 10SM FEW022 FEW027 26/22 A2991 RMK AO2 SLP119 T02560217 $
PGUM 251754Z 06010KT 10SM FEW029 FEW037 25/22 A2991 RMK AO2 SLP119 60000 T02500222 10261 20250 56015 $
PGUM 251654Z 07012KT 10SM FEW027 FEW050 26/22 A2991 RMK AO2 SLP120 T02560217 $
PGUM 251554Z 07011KT 10SM FEW026 26/22 A2993 RMK AO2 SLP126 T02560222 $
PGUM 251454Z 07013KT 10SM FEW029 26/22 A2995 RMK AO2 RAE1359 SLP134 P0000 60000 T02560222 58012 $